• Join FlightAware (Why Join?)
  • Login
  • US Flag 
08:31PM EST


 

Airport Tracker/Info


-or-


 

Live Flight TrackerFlight Track Log ✈ RPA3296 ✈ 03-May-2013 ✈ KSTL - KPHL

Flight Track Log - Related Links

Times and Time Zones

All times are in EDT time to prevent confusion due to time zone crossing. See the RPA3296 flight status page for this flight to view local times or setup timezone preferences in your user account.

Time Position Orientation Groundspeed Altitude Reporting Facility
EDT Latitude Longitude Course Direction KTS MPH feet Rate Location/Type
08:19AM 38.8000 -90.4167 80° East 174 200 2,900  Level Gateway (St. Louis) TRACON
08:20AM 38.7986 -90.3844 93° East 196 226 3,900 2,460 Climbing Kansas City Center
08:21AM 38.7972 -90.3056 91° East 209 241 6,900 3,000 Climbing Kansas City Center
08:22AM 38.7543 -89.7947 84° East  Level FlightAware Approximate
08:22AM 38.7969 -90.2192 90° East 226 260 10,000  Level Kansas City Center
08:23AM 38.7653 -89.6510 84° East  Level FlightAware Approximate
08:23AM 38.7972 -90.1075 90° East 246 283 13,300  Level Kansas City Center
08:24AM 38.7823 -89.5083 81° East  Level FlightAware Approximate
08:24AM 38.7958 -90.0117 91° East 261 300 16,100  Level Kansas City Center
08:25AM 38.7994 -89.3710 80° East  Level FlightAware Approximate
08:25AM 38.7950 -89.9078 91° East 279 321 17,800  Level Kansas City Center
08:26AM 38.7950 -89.7856 90° East 331 381 19,100 1,740 Climbing Kansas City Center
08:27AM 38.7933 -89.6411 91° East 363 418 21,400 2,160 Climbing Kansas City Center
08:28AM 38.7936 -89.5044 90° East 380 437 23,500 1,860 Climbing Kansas City Center
08:29AM 38.8106 -89.3661 81° East 393 452 25,300 1,560 Climbing Kansas City Center
08:30AM 38.8286 -89.2242 81° East 402 463 26,700 1,380 Climbing Kansas City Center
08:31AM 38.8481 -89.0672 81° East 412 474 28,200 1,140 Climbing Kansas City Center
08:32AM 38.8656 -88.9444 80° East 422 486 29,100 1,020 Climbing Kansas City Center
08:33AM 38.8839 -88.7919 81° East 432 497 30,400 1,140 Climbing Kansas City Center
08:34AM 38.9058 -88.6181 81° East 433 498 31,500 1,020 Climbing Kansas City Center
08:35AM 38.9272 -88.4631 80° East 437 503 32,500 960 Climbing Kansas City Center
08:36AM 38.9692 -88.3117 70° East 443 510 33,500 900 Climbing Kansas City Center
08:37AM 39.0086 -88.1625 71° East 446 513 34,400 1,020 Climbing Indianapolis Center
08:38AM 39.0392 -88.0081 76° East 443 510 35,600 1,020 Climbing Indianapolis Center
08:39AM 39.0664 -87.8589 77° East 430 495 36,500 660 Climbing Indianapolis Center
08:40AM 39.0928 -87.7086 77° East 427 491 37,000 240 Climbing Indianapolis Center
08:41AM 39.1222 -87.5494 77° East 427 491 37,000  Level Indianapolis Center
08:42AM 39.1481 -87.3992 77° East 431 496 37,000  Level Indianapolis Center
08:43AM 39.1744 -87.2508 77° East 427 491 37,000  Level Indianapolis Center
08:44AM 39.2003 -87.1003 77° East 432 497 37,000  Level Indianapolis Center
08:46AM 39.2264 -86.9506 77° East 431 496 37,000  Level Indianapolis Center
08:47AM 39.2578 -86.7706 77° East 432 497 37,000  Level Indianapolis Center
08:48AM 39.2833 -86.6189 78° East 436 502 37,000  Level Indianapolis Center
08:49AM 39.3086 -86.4669 78° East 438 504 37,000  Level Indianapolis Center
08:50AM 39.3344 -86.3139 78° East 441 507 37,000  Level Indianapolis Center
08:51AM 39.3581 -86.1611 79° East 440 506 37,000  Level Indianapolis Center
08:52AM 39.3836 -86.0089 78° East 439 505 37,000  Level Indianapolis Center
08:53AM 39.4136 -85.8236 78° East 444 511 37,000  Level Indianapolis Center
08:54AM 39.4386 -85.6706 78° East 441 507 37,000  Level Indianapolis Center
08:55AM 39.4628 -85.5164 78° East 441 507 37,000  Level Indianapolis Center
08:56AM 39.4875 -85.3617 78° East 442 509 37,000  Level Indianapolis Center
08:57AM 39.5119 -85.2067 78° East 441 507 37,000  Level Indianapolis Center
08:58AM 39.5361 -85.0506 79° East 445 512 37,000  Level Indianapolis Center
08:59AM 39.5583 -84.8956 79° East 442 509 37,000  Level Indianapolis Center
09:00AM 39.5883 -84.7108 78° East 439 505 37,000  Level Indianapolis Center
09:01AM 39.6106 -84.5556 79° East 436 502 37,000  Level Indianapolis Center
09:02AM 39.6336 -84.4014 79° East 433 498 37,000  Level Indianapolis Center
09:03AM 39.6558 -84.2456 79° East 436 502 37,000  Level Indianapolis Center
09:04AM 39.6792 -84.0978 78° East 436 502 37,000  Level Indianapolis Center
09:05AM 39.7011 -83.9344 80° East 436 502 37,000  Level Indianapolis Center
09:06AM 39.7242 -83.7783 79° East 437 503 37,000  Level Indianapolis Center
09:07AM 39.7453 -83.6236 80° East 435 501 37,000  Level Indianapolis Center
09:08AM 39.7689 -83.4658 79° East 438 504 37,000  Level Indianapolis Center
09:09AM 39.7919 -83.2919 80° East 439 505 37,000  Level Indianapolis Center
09:10AM 39.8133 -83.1381 80° East 433 498 37,000  Level Indianapolis Center
09:11AM 39.8342 -82.9803 80° East 438 504 37,000  Level Indianapolis Center
09:12AM 39.8558 -82.8217 80° East 443 510 37,000  Level Indianapolis Center
09:13AM 39.8781 -82.6608 80° East 447 514 37,000  Level Indianapolis Center
09:14AM 39.8983 -82.5011 81° East 447 514 37,000  Level Indianapolis Center
09:15AM 39.9197 -82.3406 80° East 447 514 37,000  Level Indianapolis Center
09:16AM 39.9431 -82.1558 81° East 439 505 37,000  Level Indianapolis Center
09:17AM 39.9633 -81.9986 80° East 437 503 37,000  Level Indianapolis Center
09:18AM 39.9825 -81.8408 81° East 438 504 37,000  Level Indianapolis Center
09:19AM 40.0014 -81.6903 81° East 436 502 37,000  Level Indianapolis Center
09:20AM 40.0208 -81.5336 81° East 436 502 37,000  Level Indianapolis Center
09:21AM 40.0392 -81.3764 81° East 436 502 37,000  Level Indianapolis Center
09:22AM 40.0617 -81.1922 81° East 438 504 37,000  Level Indianapolis Center
09:23AM 40.0800 -81.0356 81° East 435 501 37,000  Level Indianapolis Center
09:24AM 40.1000 -80.8897 80° East 432 497 37,000  Level Cleveland Center
09:25AM 40.1172 -80.7350 82° East 432 497 37,000  Level Cleveland Center
09:26AM 40.1358 -80.5803 81° East 427 491 37,000  Level Cleveland Center
09:27AM 40.1525 -80.4283 82° East 427 491 37,000  Level Cleveland Center
09:28AM 40.1647 -80.2733 84° East 427 491 37,000  Level Cleveland Center
09:29AM 40.1831 -80.1156 81° East 427 491 37,000  Level Cleveland Center
09:30AM 40.2008 -79.9606 81° East 427 491 37,000  Level Cleveland Center
09:31AM 40.2189 -79.8056 81° East 427 491 37,000  Level Cleveland Center
09:32AM 40.2364 -79.6531 81° East 427 491 37,000  Level Cleveland Center
09:33AM 40.2517 -79.5003 82° East 427 491 37,000  Level Cleveland Center
09:34AM 40.2669 -79.3478 82° East 427 491 37,000  Level Cleveland Center
09:35AM 40.2797 -79.1978 84° East 427 491 37,000  Level Cleveland Center
09:36AM 40.2944 -79.0478 83° East 422 486 37,000  Level Cleveland Center
09:37AM 40.3092 -78.9006 82° East 416 479 37,000 -480 Level Cleveland Center
09:38AM 40.3150 -78.7453 87° East 416 479 36,100 -6,000 Descending Cleveland Center
09:39AM 40.3147 -78.5953 90° East 416 479 25,000 -2,460 Descending Cleveland Center
09:40AM 40.3136 -78.4211 90° East 421 484 31,200 1,980 Climbing Cleveland Center
09:41AM 40.3125 -78.2686 90° East 421 484 29,000 -1,980 Descending Cleveland Center
09:44AM 40.3114 -77.9603 90° East 402 463 25,000 -1,260 Descending New York Center
09:45AM 40.3100 -77.8131 91° East 402 463 25,000 -240 Level New York Center
09:46AM 40.3039 -77.6681 93° East 402 463 24,600 -600 Descending New York Center
09:47AM 40.2869 -77.5275 99° East 402 463 23,800 -960 Descending New York Center
09:48AM 40.2664 -77.3733 100° East 391 450 22,700 -1,020 Descending New York Center
09:49AM 40.2467 -77.2408 101° East 385 443 21,800 -900 Descending New York Center
09:50AM 40.2289 -77.1058 100° East 380 437 20,900 -900 Descending New York Center
09:51AM 40.2131 -76.9767 99° East 368 423 20,000 -900 Descending New York Center
09:52AM 40.1944 -76.8500 101° East 360 414 19,100 -900 Descending New York Center
09:53AM 40.1800 -76.7264 99° East 349 402 18,300 -720 Descending New York Center
09:54AM 40.1611 -76.6053 101° East 344 396 17,800 -720 Descending New York Center
09:55AM 40.1481 -76.4844 98° East 333 383 16,900 -960 Descending New York Center
09:56AM 40.1308 -76.3664 101° East 333 383 15,900 -1,380 Descending New York Center
09:57AM 40.1197 -76.2514 97° East 328 377 14,200 -1,620 Descending New York Center
09:58AM 40.1083 -76.1339 97° East 328 377 12,800 -1,560 Descending New York Center
09:59AM 40.1006 -76.0275 95° East 304 350 11,200 -1,440 Descending New York Center
10:00AM 40.0903 -75.9289 98° East 280 322 10,000 -1,380 Descending New York Center
10:01AM 40.0306 -75.8675 142° Southeast 257 296 8,500 -1,440 Descending New York Center
10:02AM 39.9706 -75.8064 142° Southeast 273 314 7,200 -1,260 Descending New York Center
10:03AM 39.9106 -75.7450 142° Southeast 278 320 6,000 -1,020 Descending New York Center
10:04AM 39.8631 -75.6875 137° Southeast 263 303 5,200 -900 Descending New York Center
10:05AM 39.8325 -75.6206 121° Southeast 221 254 4,200 -780 Descending New York Center
10:05AM 39.8167 -75.5833 119° Southeast 184 212 4,100 -720 Descending Philadelphia TRACON
10:06AM 39.8000 -75.5333 113° Southeast 151 174 3,200 -540 Descending Philadelphia TRACON
10:07AM 39.8167 -75.4833 67° East 160 184 3,000 -240 Descending Philadelphia TRACON